Lake Charles, LA

9:51 PM CDT on May 04, 2015 (GMT -0500)
LCB Academy | | Change Station
CLOSE
Current Station
Personal Weather Station
Location: Lake Charles, LA
Elevation: 33 ft
Nearby Weather Stations
Active Advisory: Flood Warning

Elev 33 ft 30.22 °N, 93.20 °W | Updated 1 minute ago

Partly Cloudy
Partly Cloudy
73.0 °F
Feels Like 73 °F
N
1.0
Wind Variable Wind from SSW
Gusts 8.0 mph

Today
High -- | Low -- °F
--% Chance of Precip.
Yesterday
High -- | Low -- °F
Precip. -- in
6:27 AM 7:52 PM
Full, 99% visible
Pressure 30.11 in
Visibility 10.0 miles
Clouds Few 2200 ft
Few 4200 ft
Scattered Clouds 9000 ft
Heat Index 73 °F
Dew Point 67 °F
Humidity 82%
Rainfall 0.00 in
Snow Depth Not available.
UV 0 out of 12
Pollen 6.20 out of 12
Air Quality Not available.
Flu Activity Sporadic
METAR KLCH 050153Z 13007KT 10SM FEW022 FEW042 SCT090 23/21 A3008 RMK AO2 RAE0057B31E46 SLP194 P0003 T02280206

More Conditions Fewer Conditions

Pressure 30.11 in
Visibility 10.0 miles
Clouds Few 2200 ft
Few 4200 ft
Scattered Clouds 9000 ft
Heat Index 73 °F
Dew Point 67 °F
Humidity 82%
Rainfall 0.00 in
Snow Depth Not available.
UV 0 out of 12
Pollen 6.20 out of 12
Air Quality Not available.
Flu Activity Sporadic
METAR KLCH 050153Z 13007KT 10SM FEW022 FEW042 SCT090 23/21 A3008 RMK AO2 RAE0057B31E46 SLP194 P0003 T02280206

More Conditions Fewer Conditions

Nepal has a long way to go to dig out and rebuild from a devastating earthquake. We have teamed up with several charities and organizations to make contributing to the relief effort as easy as possible.
How you can help: Portlight Strategies | Red Cross

10-Day Weather Forecast

Almanac

Astronomy

May. 04, 2015 Rise Set
Actual Time
Civil Twilight
Nautical Twilight
Astronomical Twilight
Moon
Length of Visible Light
Length of Day
Tomorrow will be .
, % of the Moon is Illuminated

Today's Extremes

State Highs State Lows

Community

WunderPhotos

Upload Photos

1,818,793 photos uploaded!

WunderBlogs® & News

Nearby

Air Quality

  Air Quality AQ Index Pollutant
Not available.

Snow Depth

Station Depth Elevation

Earthquake Activity

City Distance Mag. Time & Date
Minimum magnitude displayed is 2.5.

Coastal Water Temperatures

Place Temperature

Stations

Nearby Weather Stations

Station Location Temp. Windchill Dew Point Humidity Wind Precip. Elev Updated Type
                   
Flood Warning
Statement as of 9:30 PM CDT on May 04, 2015

The Flood Warning continues for
the Sabine River near Deweyville.
* Until further notice... or until the warning is cancelled.
* At 8:45 PM Monday the stage was 24.2 feet.
* Minor flooding is occurring and minor flooding is forecast.
* Flood stage is 24.0 feet.
* Forecast... the river will remain steady between 24.0 and 24.2 feet
for the next several days. Additional rises may be possible
thereafter.
* Impact... at stages near 24.0 feet... minor lowland flooding will
occur.


Lat... Lon 3061 9376 3031 9381 3008 9378 3005 9367
      3044 9364 3057 9363